sensor_id;sensor_type;location;lat;lon;timestamp;pressure;altitude;pressure_sealevel;temperature;humidity
58879;BME280;44660;42.664;23.266;2022-09-09T00:00:23;94740.81;;;17.82;68.27
58879;BME280;44660;42.664;23.266;2022-09-09T00:03:05;94742.50;;;17.73;68.79
58879;BME280;44660;42.664;23.266;2022-09-09T00:08:22;94696.63;;;17.35;68.99
58879;BME280;44660;42.664;23.266;2022-09-09T00:10:56;94725.91;;;17.66;68.70
58879;BME280;44660;42.664;23.266;2022-09-09T00:13:41;94753.41;;;17.87;68.77
58879;BME280;44660;42.664;23.266;2022-09-09T00:16:25;94757.13;;;17.91;68.41
58879;BME280;44660;42.664;23.266;2022-09-09T00:18:57;94750.06;;;17.71;69.34
58879;BME280;44660;42.664;23.266;2022-09-09T00:21:37;94745.69;;;17.75;68.92
58879;BME280;44660;42.664;23.266;2022-09-09T00:24:25;94703.47;;;17.51;69.12
58879;BME280;44660;42.664;23.266;2022-09-09T00:26:57;94675.41;;;17.33;69.28
58879;BME280;44660;42.664;23.266;2022-09-09T00:30:12;94726.94;;;17.70;69.44
58879;BME280;44660;42.664;23.266;2022-09-09T00:32:39;94717.41;;;17.53;69.64
58879;BME280;44660;42.664;23.266;2022-09-09T00:35:18;94725.38;;;17.63;69.60
58879;BME280;44660;42.664;23.266;2022-09-09T00:37:48;94680.72;;;17.38;69.13
58879;BME280;44660;42.664;23.266;2022-09-09T00:40:25;94702.41;;;17.47;68.91
58879;BME280;44660;42.664;23.266;2022-09-09T00:43:22;94699.22;;;17.45;68.77
58879;BME280;44660;42.664;23.266;2022-09-09T00:48:31;94721.25;;;17.42;68.36
58879;BME280;44660;42.664;23.266;2022-09-09T00:51:10;94712.41;;;17.41;68.40
58879;BME280;44660;42.664;23.266;2022-09-09T00:54:04;94714.00;;;17.42;69.35
58879;BME280;44660;42.664;23.266;2022-09-09T00:56:47;94718.78;;;17.51;68.86
58879;BME280;44660;42.664;23.266;2022-09-09T00:59:43;94729.75;;;17.54;68.68
58879;BME280;44660;42.664;23.266;2022-09-09T01:02:36;94723.25;;;17.60;68.70
58879;BME280;44660;42.664;23.266;2022-09-09T01:05:12;94652.16;;;17.18;68.07
58879;BME280;44660;42.664;23.266;2022-09-09T01:07:40;94721.19;;;17.52;68.15
58879;BME280;44660;42.664;23.266;2022-09-09T01:10:21;94688.31;;;17.31;68.45
58879;BME280;44660;42.664;23.266;2022-09-09T01:12:52;94720.66;;;17.50;68.17
58879;BME280;44660;42.664;23.266;2022-09-09T01:15:24;94715.41;;;17.35;68.55
58879;BME280;44660;42.664;23.266;2022-09-09T01:18:07;94710.03;;;17.35;68.55
58879;BME280;44660;42.664;23.266;2022-09-09T01:28:46;94695.59;;;17.25;69.05
58879;BME280;44660;42.664;23.266;2022-09-09T01:31:17;94714.41;;;17.25;68.84
58879;BME280;44660;42.664;23.266;2022-09-09T01:33:44;94720.31;;;17.27;68.98
58879;BME280;44660;42.664;23.266;2022-09-09T01:36:26;94697.59;;;17.09;68.64
58879;BME280;44660;42.664;23.266;2022-09-09T01:38:55;94725.19;;;17.20;69.38
58879;BME280;44660;42.664;23.266;2022-09-09T01:41:21;94728.06;;;17.29;68.79
58879;BME280;44660;42.664;23.266;2022-09-09T01:43:47;94727.78;;;17.30;68.81
58879;BME280;44660;42.664;23.266;2022-09-09T01:46:13;94730.22;;;17.32;68.91
58879;BME280;44660;42.664;23.266;2022-09-09T01:48:40;94741.56;;;17.24;68.80
58879;BME280;44660;42.664;23.266;2022-09-09T01:51:08;94712.91;;;17.09;68.68
58879;BME280;44660;42.664;23.266;2022-09-09T01:53:34;94735.38;;;17.23;68.99
58879;BME280;44660;42.664;23.266;2022-09-09T01:56:05;94737.53;;;17.21;68.94
58879;BME280;44660;42.664;23.266;2022-09-09T02:04:04;94736.53;;;17.12;69.19
58879;BME280;44660;42.664;23.266;2022-09-09T02:06:44;94690.78;;;16.83;69.70
58879;BME280;44660;42.664;23.266;2022-09-09T02:09:12;94732.84;;;16.97;70.16
58879;BME280;44660;42.664;23.266;2022-09-09T02:11:38;94703.34;;;16.92;70.02
58879;BME280;44660;42.664;23.266;2022-09-09T02:14:11;94672.78;;;16.83;69.59
58879;BME280;44660;42.664;23.266;2022-09-09T02:16:42;94689.91;;;16.92;69.87
58879;BME280;44660;42.664;23.266;2022-09-09T02:19:56;94723.72;;;16.98;69.73
58879;BME280;44660;42.664;23.266;2022-09-09T02:22:26;94677.16;;;16.69;70.05
58879;BME280;44660;42.664;23.266;2022-09-09T02:24:54;94702.25;;;16.98;69.54
58879;BME280;44660;42.664;23.266;2022-09-09T02:27:22;94691.59;;;16.78;69.67
58879;BME280;44660;42.664;23.266;2022-09-09T02:29:49;94723.72;;;16.98;69.49
58879;BME280;44660;42.664;23.266;2022-09-09T02:32:22;94715.69;;;16.93;69.63
58879;BME280;44660;42.664;23.266;2022-09-09T02:34:50;94729.59;;;17.06;69.87
58879;BME280;44660;42.664;23.266;2022-09-09T02:37:20;94644.53;;;16.51;69.99
58879;BME280;44660;42.664;23.266;2022-09-09T02:39:47;94735.28;;;16.99;69.63
58879;BME280;44660;42.664;23.266;2022-09-09T02:42:12;94740.69;;;16.94;69.90
58879;BME280;44660;42.664;23.266;2022-09-09T02:44:40;94746.03;;;16.99;69.55
58879;BME280;44660;42.664;23.266;2022-09-09T02:52:42;94728.13;;;16.79;69.98
58879;BME280;44660;42.664;23.266;2022-09-09T02:55:18;94714.69;;;16.79;69.89
58879;BME280;44660;42.664;23.266;2022-09-09T02:57:47;94731.84;;;16.83;70.19
58879;BME280;44660;42.664;23.266;2022-09-09T03:00:13;94732.94;;;16.77;70.47
58879;BME280;44660;42.664;23.266;2022-09-09T03:02:39;94713.16;;;16.62;69.93
58879;BME280;44660;42.664;23.266;2022-09-09T03:05:06;94739.94;;;16.78;70.59
58879;BME280;44660;42.664;23.266;2022-09-09T03:07:31;94682.16;;;16.41;70.34
58879;BME280;44660;42.664;23.266;2022-09-09T03:09:57;94730.56;;;16.75;70.51
58879;BME280;44660;42.664;23.266;2022-09-09T03:12:23;94731.34;;;16.76;70.37
58879;BME280;44660;42.664;23.266;2022-09-09T03:14:48;94734.06;;;16.71;70.50
58879;BME280;44660;42.664;23.266;2022-09-09T03:17:15;94723.63;;;16.64;70.59
58879;BME280;44660;42.664;23.266;2022-09-09T03:19:40;94737.28;;;16.73;70.53
58879;BME280;44660;42.664;23.266;2022-09-09T03:22:06;94740.53;;;16.70;70.76
58879;BME280;44660;42.664;23.266;2022-09-09T03:24:31;94740.81;;;16.58;71.51
58879;BME280;44660;42.664;23.266;2022-09-09T03:26:57;94737.31;;;16.68;71.15
58879;BME280;44660;42.664;23.266;2022-09-09T03:29:22;94688.88;;;16.38;71.18
58879;BME280;44660;42.664;23.266;2022-09-09T03:31:48;94708.94;;;16.51;70.91
58879;BME280;44660;42.664;23.266;2022-09-09T03:34:13;94735.47;;;16.58;71.00
58879;BME280;44660;42.664;23.266;2022-09-09T03:36:39;94737.63;;;16.56;71.38
58879;BME280;44660;42.664;23.266;2022-09-09T03:39:06;94736.81;;;16.55;71.04
58879;BME280;44660;42.664;23.266;2022-09-09T03:41:32;94725.03;;;16.51;71.21
58879;BME280;44660;42.664;23.266;2022-09-09T03:43:57;94722.66;;;16.44;71.08
58879;BME280;44660;42.664;23.266;2022-09-09T03:46:25;94729.63;;;16.51;71.18
58879;BME280;44660;42.664;23.266;2022-09-09T03:48:50;94694.00;;;16.29;70.89
58879;BME280;44660;42.664;23.266;2022-09-09T03:51:17;94717.59;;;16.32;71.02
58879;BME280;44660;42.664;23.266;2022-09-09T03:53:43;94743.84;;;16.46;71.26
58879;BME280;44660;42.664;23.266;2022-09-09T03:56:09;94719.50;;;16.27;71.49
58879;BME280;44660;42.664;23.266;2022-09-09T03:58:36;94742.22;;;16.50;71.30
58879;BME280;44660;42.664;23.266;2022-09-09T04:01:07;94741.69;;;16.53;71.04
58879;BME280;44660;42.664;23.266;2022-09-09T04:03:38;94745.44;;;16.47;71.59
58879;BME280;44660;42.664;23.266;2022-09-09T04:06:06;94757.28;;;16.41;71.86
58879;BME280;44660;42.664;23.266;2022-09-09T04:08:33;94744.41;;;16.38;72.04
58879;BME280;44660;42.664;23.266;2022-09-09T04:10:59;94746.53;;;16.46;71.61
58879;BME280;44660;42.664;23.266;2022-09-09T04:13:27;94745.16;;;16.54;71.54
58879;BME280;44660;42.664;23.266;2022-09-09T04:15:55;94746.75;;;16.55;71.76
58879;BME280;44660;42.664;23.266;2022-09-09T04:18:21;94719.19;;;16.39;71.25
58879;BME280;44660;42.664;23.266;2022-09-09T04:20:48;94715.16;;;16.36;71.68
58879;BME280;44660;42.664;23.266;2022-09-09T04:23:14;94734.16;;;16.50;71.14
58879;BME280;44660;42.664;23.266;2022-09-09T04:25:50;94744.31;;;16.63;71.64
58879;BME280;44660;42.664;23.266;2022-09-09T04:28:17;94744.06;;;16.60;71.78
58879;BME280;44660;42.664;23.266;2022-09-09T04:30:43;94709.53;;;16.32;71.84
58879;BME280;44660;42.664;23.266;2022-09-09T04:33:10;94742.22;;;16.50;71.66
58879;BME280;44660;42.664;23.266;2022-09-09T04:35:36;94759.94;;;16.51;71.80
58879;BME280;44660;42.664;23.266;2022-09-09T04:38:04;94740.34;;;16.45;71.90
58879;BME280;44660;42.664;23.266;2022-09-09T04:40:31;94742.50;;;16.48;71.82
58879;BME280;44660;42.664;23.266;2022-09-09T04:43:00;94762.28;;;16.63;71.92
58879;BME280;44660;42.664;23.266;2022-09-09T04:45:26;94718.94;;;16.30;71.62
58879;BME280;44660;42.664;23.266;2022-09-09T04:47:52;94723.19;;;16.41;71.52
58879;BME280;44660;42.664;23.266;2022-09-09T04:50:17;94747.44;;;16.76;70.84
58879;BME280;44660;42.664;23.266;2022-09-09T04:52:44;94671.69;;;16.39;72.02
58879;BME280;44660;42.664;23.266;2022-09-09T04:55:09;94713.66;;;16.75;71.89
58879;BME280;44660;42.664;23.266;2022-09-09T04:57:35;94717.88;;;16.86;71.29
58879;BME280;44660;42.664;23.266;2022-09-09T05:00:00;94660.13;;;16.44;71.17
58879;BME280;44660;42.664;23.266;2022-09-09T05:02:27;94741.41;;;17.05;70.54
58879;BME280;44660;42.664;23.266;2022-09-09T05:04:52;94715.41;;;16.90;71.25
58879;BME280;44660;42.664;23.266;2022-09-09T05:07:18;94716.78;;;16.87;71.71
58879;BME280;44660;42.664;23.266;2022-09-09T05:09:44;94703.84;;;17.00;71.22
58879;BME280;44660;42.664;23.266;2022-09-09T05:12:10;94717.69;;;17.17;71.38
58879;BME280;44660;42.664;23.266;2022-09-09T05:14:36;94729.16;;;17.28;70.74
58879;BME280;44660;42.664;23.266;2022-09-09T05:17:03;94701.63;;;17.12;70.56
58879;BME280;44660;42.664;23.266;2022-09-09T05:19:28;94740.06;;;17.42;69.75
58879;BME280;44660;42.664;23.266;2022-09-09T05:21:55;94717.41;;;17.53;68.79
58879;BME280;44660;42.664;23.266;2022-09-09T05:24:21;94705.06;;;17.52;68.58
58879;BME280;44660;42.664;23.266;2022-09-09T05:26:48;94710.34;;;17.62;67.95
58879;BME280;44660;42.664;23.266;2022-09-09T05:29:13;94704.16;;;17.62;67.76
58879;BME280;44660;42.664;23.266;2022-09-09T05:31:39;94728.25;;;17.72;67.98
58879;BME280;44660;42.664;23.266;2022-09-09T05:34:04;94725.25;;;17.79;67.63
58879;BME280;44660;42.664;23.266;2022-09-09T05:36:30;94726.53;;;17.87;66.81
58879;BME280;44660;42.664;23.266;2022-09-09T05:38:55;94723.53;;;17.88;67.05
58879;BME280;44660;42.664;23.266;2022-09-09T05:41:20;94691.13;;;17.74;67.00
58879;BME280;44660;42.664;23.266;2022-09-09T05:43:48;94736.75;;;18.14;66.56
58879;BME280;44660;42.664;23.266;2022-09-09T05:46:19;94735.19;;;18.08;66.57
58879;BME280;44660;42.664;23.266;2022-09-09T05:48:46;94724.28;;;17.99;66.70
58879;BME280;44660;42.664;23.266;2022-09-09T05:51:15;94743.56;;;18.31;66.70
58879;BME280;44660;42.664;23.266;2022-09-09T05:53:41;94723.09;;;18.35;66.12
58879;BME280;44660;42.664;23.266;2022-09-09T05:56:10;94732.28;;;18.53;65.86
58879;BME280;44660;42.664;23.266;2022-09-09T05:58:37;94720.94;;;18.56;65.79
58879;BME280;44660;42.664;23.266;2022-09-09T06:01:10;94730.63;;;18.57;64.54
58879;BME280;44660;42.664;23.266;2022-09-09T06:03:38;94723.31;;;18.57;65.25
58879;BME280;44660;42.664;23.266;2022-09-09T06:06:06;94671.94;;;18.35;64.77
58879;BME280;44660;42.664;23.266;2022-09-09T06:08:33;94738.00;;;18.89;64.99
58879;BME280;44660;42.664;23.266;2022-09-09T06:11:04;94749.47;;;19.19;65.22
58879;BME280;44660;42.664;23.266;2022-09-09T06:13:30;94747.50;;;19.25;63.34
58879;BME280;44660;42.664;23.266;2022-09-09T06:15:56;94752.44;;;19.18;62.43
58879;BME280;44660;42.664;23.266;2022-09-09T06:18:22;94759.53;;;19.14;62.39
58879;BME280;44660;42.664;23.266;2022-09-09T06:20:58;94744.59;;;19.21;61.58
58879;BME280;44660;42.664;23.266;2022-09-09T06:23:24;94718.06;;;19.09;61.23
58879;BME280;44660;42.664;23.266;2022-09-09T06:25:50;94689.31;;;19.05;61.48
58879;BME280;44660;42.664;23.266;2022-09-09T06:28:17;94733.56;;;19.37;61.16
58879;BME280;44660;42.664;23.266;2022-09-09T06:30:42;94745.88;;;19.43;60.85
58879;BME280;44660;42.664;23.266;2022-09-09T06:33:08;94738.63;;;19.57;61.30
58879;BME280;44660;42.664;23.266;2022-09-09T06:35:34;94722.06;;;19.50;60.66
58879;BME280;44660;42.664;23.266;2022-09-09T06:38:03;94722.09;;;19.78;60.51
58879;BME280;44660;42.664;23.266;2022-09-09T06:40:28;94713.97;;;19.83;60.54
58879;BME280;44660;42.664;23.266;2022-09-09T06:42:59;94731.53;;;19.95;59.81
58879;BME280;44660;42.664;23.266;2022-09-09T06:45:24;94695.34;;;19.82;59.05
58879;BME280;44660;42.664;23.266;2022-09-09T06:47:50;94729.28;;;20.02;58.79
58879;BME280;44660;42.664;23.266;2022-09-09T06:50:17;94710.78;;;20.09;58.41
58879;BME280;44660;42.664;23.266;2022-09-09T06:52:46;94734.28;;;20.22;58.31
58879;BME280;44660;42.664;23.266;2022-09-09T06:55:12;94739.56;;;20.28;58.46
58879;BME280;44660;42.664;23.266;2022-09-09T06:57:38;94746.91;;;20.41;58.10
58879;BME280;44660;42.664;23.266;2022-09-09T07:00:03;94733.91;;;20.43;57.71
58879;BME280;44660;42.664;23.266;2022-09-09T07:02:29;94735.19;;;20.60;57.40
58879;BME280;44660;42.664;23.266;2022-09-09T07:04:54;94731.47;;;20.83;56.85
58879;BME280;44660;42.664;23.266;2022-09-09T07:07:20;94716.66;;;20.95;55.83
58879;BME280;44660;42.664;23.266;2022-09-09T07:09:45;94744.25;;;21.42;54.75
58879;BME280;44660;42.664;23.266;2022-09-09T07:12:12;94732.72;;;22.05;53.56
58879;BME280;44660;42.664;23.266;2022-09-09T07:14:37;94717.91;;;23.53;50.01
58879;BME280;44660;42.664;23.266;2022-09-09T07:17:03;94716.72;;;25.68;45.19
58879;BME280;44660;42.664;23.266;2022-09-09T07:19:28;94724.56;;;27.68;41.54
58879;BME280;44660;42.664;23.266;2022-09-09T07:21:53;94694.75;;;29.39;37.93
58879;BME280;44660;42.664;23.266;2022-09-09T07:24:19;94720.38;;;31.05;34.56
58879;BME280;44660;42.664;23.266;2022-09-09T07:26:44;94713.38;;;32.40;32.54
58879;BME280;44660;42.664;23.266;2022-09-09T07:29:11;94719.66;;;33.52;31.16
58879;BME280;44660;42.664;23.266;2022-09-09T07:31:42;94701.00;;;34.30;28.66
58879;BME280;44660;42.664;23.266;2022-09-09T07:34:08;94693.50;;;35.21;27.85
58879;BME280;44660;42.664;23.266;2022-09-09T07:36:36;94704.66;;;36.06;26.36
58879;BME280;44660;42.664;23.266;2022-09-09T07:39:05;94713.16;;;36.90;25.42
58879;BME280;44660;42.664;23.266;2022-09-09T07:41:39;94709.75;;;37.55;23.67
58879;BME280;44660;42.664;23.266;2022-09-09T07:44:11;94716.34;;;37.99;22.89
58879;BME280;44660;42.664;23.266;2022-09-09T07:46:37;94703.97;;;38.86;22.74
58879;BME280;44660;42.664;23.266;2022-09-09T07:49:05;94719.63;;;39.64;22.33
58879;BME280;44660;42.664;23.266;2022-09-09T07:51:33;94715.81;;;40.51;21.16
58879;BME280;44660;42.664;23.266;2022-09-09T07:54:01;94713.38;;;41.19;20.69
58879;BME280;44660;42.664;23.266;2022-09-09T07:56:28;94675.72;;;41.27;19.29
58879;BME280;44660;42.664;23.266;2022-09-09T07:58:55;94696.38;;;41.59;19.76
58879;BME280;44660;42.664;23.266;2022-09-09T08:01:25;94703.50;;;41.90;19.24
58879;BME280;44660;42.664;23.266;2022-09-09T08:03:57;94703.47;;;42.45;18.48
58879;BME280;44660;42.664;23.266;2022-09-09T08:06:28;94704.69;;;42.31;19.01
58879;BME280;44660;42.664;23.266;2022-09-09T08:08:54;94678.41;;;42.03;19.21
58879;BME280;44660;42.664;23.266;2022-09-09T08:11:21;94697.94;;;41.60;19.02
58879;BME280;44660;42.664;23.266;2022-09-09T08:13:49;94705.13;;;41.74;19.09
58879;BME280;44660;42.664;23.266;2022-09-09T08:16:19;94704.53;;;42.09;18.78
58879;BME280;44660;42.664;23.266;2022-09-09T08:18:51;94699.69;;;41.84;18.43
58879;BME280;44660;42.664;23.266;2022-09-09T08:21:19;94691.81;;;41.36;18.76
58879;BME280;44660;42.664;23.266;2022-09-09T08:23:47;94691.81;;;39.24;20.94
58879;BME280;44660;42.664;23.266;2022-09-09T08:26:24;94698.94;;;37.95;23.58
58879;BME280;44660;42.664;23.266;2022-09-09T08:28:51;94671.72;;;36.75;24.15
58879;BME280;44660;42.664;23.266;2022-09-09T08:31:29;94689.50;;;36.25;25.39
58879;BME280;44660;42.664;23.266;2022-09-09T08:33:55;94670.13;;;35.55;26.29
58879;BME280;44660;42.664;23.266;2022-09-09T08:36:23;94691.56;;;35.07;27.15
58879;BME280;44660;42.664;23.266;2022-09-09T08:38:52;94686.81;;;34.28;27.22
58879;BME280;44660;42.664;23.266;2022-09-09T08:41:34;94650.63;;;33.20;28.63
58879;BME280;44660;42.664;23.266;2022-09-09T08:46:57;94696.91;;;33.70;28.33
58879;BME280;44660;42.664;23.266;2022-09-09T08:52:19;94666.97;;;33.72;28.35
58879;BME280;44660;42.664;23.266;2022-09-09T08:54:47;94629.00;;;33.18;28.00
58879;BME280;44660;42.664;23.266;2022-09-09T08:57:21;94687.22;;;33.20;29.31
58879;BME280;44660;42.664;23.266;2022-09-09T08:59:52;94656.91;;;32.58;30.23
58879;BME280;44660;42.664;23.266;2022-09-09T09:02:31;94662.69;;;32.90;29.44
58879;BME280;44660;42.664;23.266;2022-09-09T09:07:52;94683.13;;;33.77;27.85
58879;BME280;44660;42.664;23.266;2022-09-09T09:12:58;94675.59;;;33.60;28.71
58879;BME280;44660;42.664;23.266;2022-09-09T09:15:26;94634.91;;;33.20;28.98
58879;BME280;44660;42.664;23.266;2022-09-09T09:17:54;94679.34;;;33.22;28.30
58879;BME280;44660;42.664;23.266;2022-09-09T09:20:33;94681.13;;;32.89;29.44
58879;BME280;44660;42.664;23.266;2022-09-09T09:23:02;94667.16;;;32.61;29.36
58879;BME280;44660;42.664;23.266;2022-09-09T09:25:34;94673.50;;;32.20;30.11
58879;BME280;44660;42.664;23.266;2022-09-09T09:30:59;94689.41;;;31.05;32.14
58879;BME280;44660;42.664;23.266;2022-09-09T09:33:49;94686.50;;;30.94;32.88
58879;BME280;44660;42.664;23.266;2022-09-09T09:36:15;94659.34;;;30.12;32.68
58879;BME280;44660;42.664;23.266;2022-09-09T09:38:53;94667.50;;;30.82;32.25
58879;BME280;44660;42.664;23.266;2022-09-09T09:41:35;94670.50;;;31.26;32.29
58879;BME280;44660;42.664;23.266;2022-09-09T09:44:02;94642.38;;;31.37;31.56
58879;BME280;44660;42.664;23.266;2022-09-09T09:46:28;94656.69;;;30.92;31.23
58879;BME280;44660;42.664;23.266;2022-09-09T09:49:03;94654.69;;;30.89;32.78
58879;BME280;44660;42.664;23.266;2022-09-09T09:51:31;94654.03;;;31.00;32.25
58879;BME280;44660;42.664;23.266;2022-09-09T09:56:39;94638.41;;;31.04;32.39
58879;BME280;44660;42.664;23.266;2022-09-09T09:59:05;94650.91;;;31.01;31.97
58879;BME280;44660;42.664;23.266;2022-09-09T10:01:32;94640.16;;;30.89;31.25
58879;BME280;44660;42.664;23.266;2022-09-09T10:04:01;94652.75;;;30.63;31.80
58879;BME280;44660;42.664;23.266;2022-09-09T10:06:36;94657.66;;;30.50;32.26
58879;BME280;44660;42.664;23.266;2022-09-09T10:09:17;94621.47;;;29.94;32.70
58879;BME280;44660;42.664;23.266;2022-09-09T10:19:37;94667.06;;;29.24;34.94
58879;BME280;44660;42.664;23.266;2022-09-09T10:31:00;94674.53;;;28.56;35.46
58879;BME280;44660;42.664;23.266;2022-09-09T10:33:35;94653.47;;;28.41;35.63
58879;BME280;44660;42.664;23.266;2022-09-09T10:36:29;94677.09;;;28.49;36.58
58879;BME280;44660;42.664;23.266;2022-09-09T10:39:08;94678.34;;;28.35;37.34
58879;BME280;44660;42.664;23.266;2022-09-09T10:52:59;94685.19;;;27.97;38.34
58879;BME280;44660;42.664;23.266;2022-09-09T10:55:43;94681.63;;;27.81;38.28
58879;BME280;44660;42.664;23.266;2022-09-09T10:58:14;94665.34;;;27.56;39.10
58879;BME280;44660;42.664;23.266;2022-09-09T11:00:52;94677.38;;;27.67;39.15
58879;BME280;44660;42.664;23.266;2022-09-09T11:03:26;94676.47;;;27.63;39.30
58879;BME280;44660;42.664;23.266;2022-09-09T11:05:56;94650.28;;;27.46;39.37
58879;BME280;44660;42.664;23.266;2022-09-09T11:08:33;94657.56;;;27.42;39.85
58879;BME280;44660;42.664;23.266;2022-09-09T11:19:11;94659.66;;;27.61;41.38
58879;BME280;44660;42.664;23.266;2022-09-09T11:21:44;94661.88;;;27.72;41.38
58879;BME280;44660;42.664;23.266;2022-09-09T11:24:16;94656.50;;;27.59;41.19
58879;BME280;44660;42.664;23.266;2022-09-09T11:32:41;94630.22;;;27.70;41.58
58879;BME280;44660;42.664;23.266;2022-09-09T11:38:21;94628.53;;;27.50;41.92
58879;BME280;44660;42.664;23.266;2022-09-09T11:40:55;94598.09;;;27.35;42.37
58879;BME280;44660;42.664;23.266;2022-09-09T11:43:45;94598.53;;;27.37;42.74
58879;BME280;44660;42.664;23.266;2022-09-09T11:46:13;94601.75;;;27.40;43.07
58879;BME280;44660;42.664;23.266;2022-09-09T11:48:59;94575.72;;;27.30;42.08
58879;BME280;44660;42.664;23.266;2022-09-09T11:51:30;94556.16;;;27.40;41.16
58879;BME280;44660;42.664;23.266;2022-09-09T11:53:58;94568.59;;;27.25;41.01
58879;BME280;44660;42.664;23.266;2022-09-09T11:59:01;94590.06;;;27.39;41.82
58879;BME280;44660;42.664;23.266;2022-09-09T12:01:33;94599.03;;;27.40;41.79
58879;BME280;44660;42.664;23.266;2022-09-09T12:04:09;94589.81;;;27.60;40.69
58879;BME280;44660;42.664;23.266;2022-09-09T12:06:50;94586.03;;;27.65;41.04
58879;BME280;44660;42.664;23.266;2022-09-09T12:12:23;94574.31;;;27.80;40.56
58879;BME280;44660;42.664;23.266;2022-09-09T12:17:42;94578.81;;;27.89;40.91
58879;BME280;44660;42.664;23.266;2022-09-09T12:22:53;94555.28;;;27.84;40.13
58879;BME280;44660;42.664;23.266;2022-09-09T12:30:37;94538.47;;;28.14;39.86
58879;BME280;44660;42.664;23.266;2022-09-09T12:33:17;94496.06;;;27.88;39.35
58879;BME280;44660;42.664;23.266;2022-09-09T12:35:44;94539.00;;;28.03;39.03
58879;BME280;44660;42.664;23.266;2022-09-09T12:38:17;94549.03;;;28.15;38.08
58879;BME280;44660;42.664;23.266;2022-09-09T12:40:55;94528.31;;;27.98;38.25
58879;BME280;44660;42.664;23.266;2022-09-09T12:43:24;94516.59;;;27.82;39.01
58879;BME280;44660;42.664;23.266;2022-09-09T12:45:50;94553.47;;;28.04;39.77
58879;BME280;44660;42.664;23.266;2022-09-09T12:48:27;94535.31;;;27.80;39.54
58879;BME280;44660;42.664;23.266;2022-09-09T12:50:55;94538.53;;;28.01;39.00
58879;BME280;44660;42.664;23.266;2022-09-09T12:53:24;94531.59;;;28.04;38.78
58879;BME280;44660;42.664;23.266;2022-09-09T12:56:06;94514.78;;;27.86;39.26
58879;BME280;44660;42.664;23.266;2022-09-09T12:58:33;94536.00;;;27.93;39.23
58879;BME280;44660;42.664;23.266;2022-09-09T13:01:01;94513.38;;;27.76;39.92
58879;BME280;44660;42.664;23.266;2022-09-09T13:03:31;94530.53;;;27.77;40.29
58879;BME280;44660;42.664;23.266;2022-09-09T13:06:18;94495.38;;;27.75;40.21
58879;BME280;44660;42.664;23.266;2022-09-09T13:08:45;94489.75;;;27.68;40.38
58879;BME280;44660;42.664;23.266;2022-09-09T13:11:14;94503.56;;;27.91;40.45
58879;BME280;44660;42.664;23.266;2022-09-09T13:13:42;94515.81;;;27.97;40.90
58879;BME280;44660;42.664;23.266;2022-09-09T13:18:47;94513.53;;;27.83;41.06
58879;BME280;44660;42.664;23.266;2022-09-09T13:21:13;94510.09;;;27.86;41.32
58879;BME280;44660;42.664;23.266;2022-09-09T13:23:39;94506.72;;;27.93;41.27
58879;BME280;44660;42.664;23.266;2022-09-09T13:26:26;94492.00;;;27.98;41.02
58879;BME280;44660;42.664;23.266;2022-09-09T13:28:53;94493.97;;;27.81;40.01
58879;BME280;44660;42.664;23.266;2022-09-09T13:31:24;94503.03;;;28.01;39.97
58879;BME280;44660;42.664;23.266;2022-09-09T13:33:52;94492.94;;;27.86;40.63
58879;BME280;44660;42.664;23.266;2022-09-09T13:36:28;94474.72;;;27.58;40.20
58879;BME280;44660;42.664;23.266;2022-09-09T13:39:02;94484.81;;;27.74;40.07
58879;BME280;44660;42.664;23.266;2022-09-09T13:41:32;94490.28;;;27.74;40.38
58879;BME280;44660;42.664;23.266;2022-09-09T13:43:59;94479.38;;;27.74;40.12
58879;BME280;44660;42.664;23.266;2022-09-09T13:46:31;94478.84;;;27.52;40.67
58879;BME280;44660;42.664;23.266;2022-09-09T13:49:20;94475.78;;;27.53;40.60
58879;BME280;44660;42.664;23.266;2022-09-09T13:52:02;94503.66;;;27.63;41.14
58879;BME280;44660;42.664;23.266;2022-09-09T13:54:28;94478.41;;;27.66;40.52
58879;BME280;44660;42.664;23.266;2022-09-09T13:56:53;94470.13;;;27.62;40.17
58879;BME280;44660;42.664;23.266;2022-09-09T13:59:20;94445.47;;;27.59;40.15
58879;BME280;44660;42.664;23.266;2022-09-09T14:01:46;94418.22;;;27.43;40.41
58879;BME280;44660;42.664;23.266;2022-09-09T14:04:12;94485.78;;;27.81;40.59
58879;BME280;44660;42.664;23.266;2022-09-09T14:06:38;94475.03;;;27.73;40.83
58879;BME280;44660;42.664;23.266;2022-09-09T14:09:06;94477.88;;;27.76;40.47
58879;BME280;44660;42.664;23.266;2022-09-09T14:11:32;94466.94;;;27.60;40.59
58879;BME280;44660;42.664;23.266;2022-09-09T14:13:57;94475.69;;;27.50;40.86
58879;BME280;44660;42.664;23.266;2022-09-09T14:16:23;94472.84;;;27.30;41.08
58879;BME280;44660;42.664;23.266;2022-09-09T14:18:48;94474.75;;;27.14;41.90
58879;BME280;44660;42.664;23.266;2022-09-09T14:21:14;94473.88;;;27.10;41.93
58879;BME280;44660;42.664;23.266;2022-09-09T14:23:41;94463.84;;;27.14;42.10
58879;BME280;44660;42.664;23.266;2022-09-09T14:26:07;94458.91;;;27.03;41.90
58879;BME280;44660;42.664;23.266;2022-09-09T14:28:33;94470.44;;;27.13;41.70
58879;BME280;44660;42.664;23.266;2022-09-09T14:31:00;94451.41;;;27.00;41.90
58879;BME280;44660;42.664;23.266;2022-09-09T14:33:26;94462.16;;;27.09;41.65
58879;BME280;44660;42.664;23.266;2022-09-09T14:36:00;94464.53;;;27.11;41.81
58879;BME280;44660;42.664;23.266;2022-09-09T14:38:30;94418.84;;;26.92;41.47
58879;BME280;44660;42.664;23.266;2022-09-09T14:40:56;94459.88;;;27.11;42.20
58879;BME280;44660;42.664;23.266;2022-09-09T14:43:23;94462.41;;;27.04;42.35
58879;BME280;44660;42.664;23.266;2022-09-09T14:45:49;94430.13;;;26.62;42.33
58879;BME280;44660;42.664;23.266;2022-09-09T14:48:16;94472.50;;;26.87;42.42
58879;BME280;44660;42.664;23.266;2022-09-09T14:50:42;94461.59;;;26.87;42.16